Streator, IL (61364)

11:18 PM CDT on July 30, 2016 (GMT -0500)
Eplin/Connell Farm 2 miles NW of | | Change Station

Elev 626 ft 41.17 °N, 88.85 °W | Updated 3 minutes ago

Clear
Clear
66.3 °F
Feels Like 66.3 °F
N
0.0
Wind Variable Wind from ENE
Gusts 3.0 mph

Today
High -- | Low -- °F
--% Chance of Precip.
Yesterday
High -- | Low -- °F
Precip. -- in
Pressure 30.01 in
Visibility 10.0 miles
Clouds Clear
Dew Point 65 °F
Humidity 96%
Rainfall 0.66 in
Snow Depth Not available.
5:49 AM 8:13 PM
Waning Crescent, 9% visible
METAR KPNT 310335Z AUTO 07004KT 10SM CLR 21/20 A3001 RMK AO2 T02070200
Pressure 30.01 in
Visibility 10.0 miles
Clouds Clear
Dew Point 65 °F
Humidity 96%
Rainfall 0.66 in
Snow Depth Not available.
5:49 AM 8:13 PM
Waning Crescent, 9% visible
METAR KPNT 310335Z AUTO 07004KT 10SM CLR 21/20 A3001 RMK AO2 T02070200

10-Day Weather Forecast

Almanac

Astronomy

Jul. 30, 2016 Rise Set
Actual Time
Civil Twilight
Nautical Twilight
Astronomical Twilight
Moon
Length of Visible Light
Length of Day
Tomorrow will be .
, % of the Moon is Illuminated

Today's Extremes

State Highs State Lows

Community

WunderPhotos

Upload Photos

1,928,751 photos uploaded!

WunderBlog® & News

Nearby

Air Quality

  Air Quality AQ Index Pollutant
Not available.

Snow Depth

Station Depth Elevation

Earthquake Activity

City Distance Mag. Time & Date
Minimum magnitude displayed is 2.5.

Coastal Water Temperatures

Place Temperature

Stations

Nearby Weather Stations

Station Location Temp. Windchill Dew Point Humidity Wind Precip. Elev Updated Type
                   

Watches & Warnings

There are currently no watches in effect.